Time;durP1;ratioP1;P1;durP2;ratioP2;P2;SDS_P1;SDS_P2;PMS_P1;PMS_P2;Temp;Humidity;BMP_temperature;BMP_pressure;BME280_temperature;BME280_humidity;BME280_pressure;Samples;Min_cycle;Max_cycle;Signal;HPM_P1;HPM_P2
2022/05/07 00:02:16;;;;;;;11.15;7.68;;;;;;;18.92;53.95;100216.19;4441103;32;33086;-89
2022/05/07 00:05:07;;;;;;;12.02;7.53;;;;;;;18.89;53.90;100217.53;4442609;32;34694;-87
2022/05/07 00:08:05;;;;;;;12.88;7.25;;;;;;;19.12;53.39;100224.91;4443076;32;32713;-89
2022/05/07 00:10:58;;;;;;;11.00;7.47;;;;;;;19.11;53.54;100217.66;4442409;32;32261;-88
2022/05/07 00:13:46;;;;;;;13.15;7.47;;;;;;;19.12;53.46;100219.34;4441171;32;33994;-89
2022/05/07 00:19:32;;;;;;;10.10;7.40;;;;;;;19.20;52.70;100215.28;4443201;32;32074;-88
2022/05/07 00:22:16;;;;;;;10.32;7.72;;;;;;;19.18;52.94;100218.31;4441039;32;32421;-88
2022/05/07 00:25:20;;;;;;;11.57;7.30;;;;;;;19.28;52.62;100226.84;4442804;32;33453;-87
2022/05/07 00:28:13;;;;;;;10.48;7.10;;;;;;;19.33;52.47;100226.09;4442407;32;34501;-89
2022/05/07 00:31:06;;;;;;;10.80;7.00;;;;;;;19.37;52.05;100230.91;4441272;32;32735;-87
2022/05/07 00:33:56;;;;;;;9.80;7.37;;;;;;;19.43;52.02;100223.47;4441829;32;34745;-88
2022/05/07 00:36:55;;;;;;;9.95;7.72;;;;;;;19.33;52.53;100226.94;4454015;32;34453;-88
2022/05/07 00:39:48;;;;;;;11.27;7.20;;;;;;;19.36;52.75;100225.59;4442281;32;34009;-88
2022/05/07 00:42:38;;;;;;;9.30;7.10;;;;;;;19.38;52.67;100224.22;4453880;32;34050;-88
2022/05/07 00:45:28;;;;;;;13.85;7.55;;;;;;;19.36;52.43;100228.38;4429029;32;32427;-89
2022/05/07 00:48:16;;;;;;;9.15;6.53;;;;;;;19.31;52.49;100225.50;4453634;32;34854;-89
2022/05/07 00:54:17;;;;;;;10.55;6.82;;;;;;;19.28;52.68;100226.00;4443289;32;31818;-87
2022/05/07 00:57:13;;;;;;;11.20;6.35;;;;;;;19.28;52.17;100221.28;4453753;32;33727;-89
2022/05/07 01:00:03;;;;;;;9.10;5.82;;;;;;;19.30;52.01;100219.09;4453424;32;34510;-88
2022/05/07 01:02:57;;;;;;;7.97;5.87;;;;;;;19.19;51.81;100220.00;4440924;32;33328;-88
2022/05/07 01:05:59;;;;;;;9.85;6.35;;;;;;;19.38;51.11;100220.59;4429750;32;32018;-86
2022/05/07 01:08:47;;;;;;;8.65;5.78;;;;;;;19.29;51.87;100217.41;4453243;32;33728;-87
2022/05/07 01:11:42;;;;;;;9.52;6.10;;;;;;;19.30;52.46;100210.75;4442004;32;34176;-88
2022/05/07 01:14:29;;;;;;;7.43;5.55;;;;;;;19.24;52.46;100214.53;4442108;32;32482;-88
2022/05/07 01:17:14;;;;;;;9.20;5.85;;;;;;;19.19;52.71;100217.22;4441512;32;34129;-88
2022/05/07 01:20:05;;;;;;;10.50;5.90;;;;;;;19.26;52.53;100222.63;4453470;32;33655;-89
2022/05/07 01:22:57;;;;;;;9.18;6.30;;;;;;;19.19;52.43;100222.78;4452315;32;34605;-87
2022/05/07 01:25:49;;;;;;;7.78;6.00;;;;;;;19.21;52.17;100217.81;4441688;32;32787;-88
2022/05/07 01:28:44;;;;;;;11.07;6.12;;;;;;;19.17;52.46;100215.78;4442032;32;33074;-87
2022/05/07 01:31:36;;;;;;;8.30;5.97;;;;;;;19.21;52.47;100216.97;4453743;32;33774;-88
2022/05/07 01:34:29;;;;;;;9.15;6.15;;;;;;;19.09;52.70;100215.12;4442631;32;34219;-87
2022/05/07 01:37:20;;;;;;;9.00;5.90;;;;;;;19.14;52.71;100217.13;4441197;32;33859;-89
2022/05/07 01:40:07;;;;;;;9.18;6.03;;;;;;;19.12;52.57;100210.97;4441661;32;32807;-88
2022/05/07 01:43:00;;;;;;;9.57;5.87;;;;;;;19.06;52.63;100210.06;4453875;32;33922;-89
2022/05/07 01:45:51;;;;;;;8.85;5.90;;;;;;;19.07;52.47;100210.91;4442588;32;33063;-86
2022/05/07 01:48:40;;;;;;;9.85;6.10;;;;;;;19.04;52.33;100212.25;4442096;32;33946;-86
2022/05/07 01:51:32;;;;;;;9.30;6.10;;;;;;;19.03;52.30;100207.78;4429159;32;31942;-88
2022/05/07 01:54:20;;;;;;;10.85;5.85;;;;;;;18.84;52.78;100211.06;4453451;32;33958;-88
2022/05/07 01:57:07;;;;;;;7.87;5.62;;;;;;;18.85;52.44;100205.22;4441380;32;33010;-89
2022/05/07 01:59:52;;;;;;;8.35;5.68;;;;;;;18.90;52.05;100204.47;4453209;32;34594;-88
2022/05/07 02:02:34;;;;;;;10.00;6.00;;;;;;;19.02;51.78;100205.25;4440888;32;32054;-87
2022/05/07 02:05:28;;;;;;;8.60;6.07;;;;;;;18.88;51.82;100206.66;4441872;32;33958;-88
2022/05/07 02:08:14;;;;;;;10.18;6.30;;;;;;;18.99;51.40;100201.03;4428472;32;32956;-89
2022/05/07 02:11:04;;;;;;;9.13;5.85;;;;;;;18.98;51.42;100206.84;4440926;32;33430;-88
2022/05/07 02:14:01;;;;;;;9.20;5.97;;;;;;;18.80;51.95;100205.16;4453068;32;33151;-88
2022/05/07 02:16:56;;;;;;;7.62;5.72;;;;;;;18.95;51.50;100208.19;4441025;32;32476;-87
2022/05/07 02:19:54;;;;;;;9.80;6.37;;;;;;;18.77;51.95;100204.81;4429695;32;33167;-88
2022/05/07 02:22:48;;;;;;;8.70;6.15;;;;;;;18.85;51.61;100202.44;4453010;32;33098;-89
2022/05/07 02:25:40;;;;;;;7.70;5.55;;;;;;;18.72;51.96;100200.00;4452797;32;33925;-88
2022/05/07 02:28:37;;;;;;;8.15;5.30;;;;;;;18.74;51.86;100201.44;4441099;32;32322;-88
2022/05/07 02:31:26;;;;;;;7.57;5.85;;;;;;;18.78;51.85;100195.38;4440951;32;35319;-87
2022/05/07 02:34:11;;;;;;;9.88;5.57;;;;;;;18.71;51.92;100207.50;4440190;32;34745;-88
2022/05/07 02:37:05;;;;;;;7.50;5.12;;;;;;;18.64;52.42;100195.69;4440215;32;32808;-88
2022/05/07 02:39:56;;;;;;;7.47;5.40;;;;;;;18.77;52.18;100205.66;4440893;32;33368;-88
2022/05/07 02:42:50;;;;;;;8.65;5.90;;;;;;;18.60;52.92;100205.63;4452755;32;35655;-90
2022/05/07 02:45:45;;;;;;;9.05;5.57;;;;;;;18.54;52.94;100203.78;4428836;32;33122;-88
2022/05/07 02:48:35;;;;;;;;;;;;;;;18.66;52.52;100201.84;4441618;32;31855;-87
2022/05/07 02:51:24;;;;;;;8.77;5.65;;;;;;;18.72;51.91;100198.06;4442581;32;32726;-88
2022/05/07 02:54:10;;;;;;;8.23;5.30;;;;;;;18.74;51.94;100201.44;4430259;32;32960;-88
2022/05/07 02:57:00;;;;;;;9.13;6.05;;;;;;;18.63;52.31;100213.47;4429406;32;32794;-88
2022/05/07 02:59:48;;;;;;;7.55;5.43;;;;;;;18.60;52.60;100211.19;4454561;32;33483;-88
2022/05/07 03:02:39;;;;;;;6.93;5.07;;;;;;;18.51;53.15;100209.84;4442674;32;33206;-88
2022/05/07 03:05:30;;;;;;;8.65;5.37;;;;;;;18.66;52.68;100209.34;4454846;32;34389;-89
2022/05/07 03:08:24;;;;;;;7.70;5.82;;;;;;;18.55;52.91;100211.03;4442914;32;32514;-89
2022/05/07 03:11:12;;;;;;;8.18;5.30;;;;;;;18.63;52.78;100213.47;4441873;32;32718;-88
2022/05/07 03:13:57;;;;;;;8.55;5.22;;;;;;;18.61;52.88;100212.03;4429264;32;33304;-88
2022/05/07 03:16:47;;;;;;;9.93;5.37;;;;;;;18.54;53.14;100212.12;4442493;32;33140;-88
2022/05/07 03:22:39;;;;;;;7.20;5.03;;;;;;;18.47;53.24;100211.44;4454166;32;33986;-88
2022/05/07 03:25:24;;;;;;;8.68;5.12;;;;;;;18.41;53.70;100218.84;4454094;32;34590;-89
2022/05/07 03:28:12;;;;;;;9.13;5.50;;;;;;;18.42;53.42;100214.13;4442783;32;35110;-88
2022/05/07 03:31:08;;;;;;;7.37;5.12;;;;;;;18.40;53.04;100213.53;4430078;32;32898;-87
2022/05/07 03:33:59;;;;;;;8.20;5.32;;;;;;;18.40;52.75;100211.59;4455387;32;33168;-87
2022/05/07 03:36:48;;;;;;;8.55;5.75;;;;;;;18.49;52.38;100212.03;4454196;32;34620;-86
2022/05/07 03:39:36;;;;;;;7.32;5.10;;;;;;;18.44;52.49;100210.00;4442226;32;34627;-88
2022/05/07 03:42:19;;;;;;;6.82;5.12;;;;;;;18.47;52.41;100216.16;4442435;32;33390;-88
2022/05/07 03:45:07;;;;;;;7.60;5.35;;;;;;;18.40;52.37;100216.31;4441438;32;31361;-88
2022/05/07 03:47:57;;;;;;;7.93;5.82;;;;;;;18.34;52.76;100222.84;4454131;32;33487;-89
2022/05/07 03:50:43;;;;;;;8.52;5.53;;;;;;;18.38;52.63;100221.25;4454136;32;34297;-89
2022/05/07 03:53:34;;;;;;;8.20;5.62;;;;;;;18.44;52.17;100223.91;4442296;32;33880;-89
2022/05/07 03:56:20;;;;;;;7.37;5.57;;;;;;;18.28;52.64;100223.81;4429713;32;32024;-88
2022/05/07 03:59:06;;;;;;;7.75;4.95;;;;;;;18.38;52.47;100222.09;4441951;32;33645;-88
2022/05/07 04:01:55;;;;;;;6.65;4.93;;;;;;;18.38;52.70;100224.88;4453523;32;34283;-89
2022/05/07 04:04:44;;;;;;;7.82;5.40;;;;;;;18.48;52.25;100229.81;4454473;32;34175;-89
2022/05/07 04:07:32;;;;;;;7.72;5.62;;;;;;;18.42;52.81;100226.06;4454078;32;34200;-89
2022/05/07 04:10:22;;;;;;;9.98;5.53;;;;;;;18.46;52.65;100228.38;4442000;32;33124;-88
2022/05/07 04:13:12;;;;;;;8.85;5.90;;;;;;;18.34;52.92;100229.25;4453906;32;34656;-89
2022/05/07 04:16:06;;;;;;;9.52;6.30;;;;;;;18.40;52.60;100230.19;4442479;32;33412;-87
2022/05/07 04:18:54;;;;;;;9.43;6.28;;;;;;;18.43;52.53;100226.91;4441321;32;33308;-88
2022/05/07 04:21:46;;;;;;;8.80;6.10;;;;;;;18.42;52.42;100226.06;4429261;32;32782;-88
2022/05/07 04:24:37;;;;;;;9.70;6.40;;;;;;;18.44;52.36;100225.84;4453933;32;35368;-84
2022/05/07 04:27:22;;;;;;;11.80;6.10;;;;;;;18.44;52.59;100237.78;4442208;32;34213;-85
2022/05/07 04:30:12;;;;;;;7.45;5.68;;;;;;;18.52;52.30;100236.56;4442457;32;33813;-84
2022/05/07 04:32:57;;;;;;;7.85;5.82;;;;;;;18.52;52.44;100231.00;4441983;32;34738;-83
2022/05/07 04:35:48;;;;;;;8.43;5.82;;;;;;;18.36;52.84;100237.34;4442136;32;34425;-83
2022/05/07 04:38:36;;;;;;;8.77;5.78;;;;;;;18.27;53.24;100231.31;4442078;32;33336;-84
2022/05/07 04:41:23;;;;;;;7.93;5.82;;;;;;;18.46;52.85;100234.78;4453575;32;32271;-82
2022/05/07 04:44:13;;;;;;;8.63;5.68;;;;;;;18.43;52.80;100236.09;4454295;32;33497;-83
2022/05/07 04:47:05;;;;;;;9.60;6.07;;;;;;;18.51;52.71;100234.88;4453810;32;33063;-83
2022/05/07 04:49:58;;;;;;;8.68;6.15;;;;;;;18.46;52.71;100234.78;4441950;32;33514;-84
2022/05/07 04:52:53;;;;;;;11.10;6.70;;;;;;;18.45;53.04;100241.41;4453684;32;33635;-83
2022/05/07 04:55:39;;;;;;;10.07;5.80;;;;;;;18.50;53.11;100237.91;4453922;32;33847;-84
2022/05/07 04:58:35;;;;;;;8.93;6.05;;;;;;;18.28;52.91;100234.94;4429645;32;34015;-82
2022/05/07 05:01:21;;;;;;;11.93;6.57;;;;;;;18.40;52.96;100232.97;4441891;32;33616;-85
2022/05/07 05:04:13;;;;;;;9.63;6.60;;;;;;;18.43;52.98;100233.31;4453830;32;33176;-84
2022/05/07 05:07:00;;;;;;;11.48;5.80;;;;;;;18.47;52.98;100239.22;4453714;32;33866;-84
2022/05/07 05:09:52;;;;;;;8.52;5.80;;;;;;;18.53;52.68;100242.97;4441884;32;35160;-84
2022/05/07 05:12:47;;;;;;;9.98;6.03;;;;;;;18.54;52.97;100242.72;4429292;32;32743;-85
2022/05/07 05:15:38;;;;;;;9.10;6.15;;;;;;;18.61;52.88;100240.66;4441860;32;33339;-85
2022/05/07 05:18:29;;;;;;;9.15;6.15;;;;;;;18.79;52.33;100238.78;4441831;32;32460;-84
2022/05/07 05:21:14;;;;;;;10.48;5.90;;;;;;;18.70;52.73;100241.97;4453716;32;35429;-83
2022/05/07 05:24:04;;;;;;;9.80;6.15;;;;;;;18.59;52.97;100242.81;4453531;32;34011;-85
2022/05/07 05:26:57;;;;;;;10.63;7.78;;;;;;;18.86;52.38;100256.97;4453243;32;32789;-79
2022/05/07 05:29:51;;;;;;;11.00;7.65;;;;;;;18.82;52.47;100243.84;4453300;32;34467;-85
2022/05/07 05:32:45;;;;;;;11.98;8.45;;;;;;;18.83;52.72;100251.09;4442004;32;32962;-84
2022/05/07 05:35:37;;;;;;;9.10;6.03;;;;;;;18.86;52.75;100250.56;4449279;32;33923;-85
2022/05/07 05:38:26;;;;;;;8.85;5.68;;;;;;;18.84;52.94;100250.00;4433126;32;33989;-85
2022/05/07 05:41:06;;;;;;;;;;;;;;;18.82;53.38;100249.41;4442501;32;34607;-84
2022/05/07 05:44:06;;;;;;;9.75;7.43;;;;;;;18.92;52.70;100247.63;4441890;32;34603;-85
2022/05/07 05:47:09;;;;;;;8.88;5.90;;;;;;;18.91;52.82;100248.72;4442190;32;33774;-85
2022/05/07 05:50:01;;;;;;;9.82;6.68;;;;;;;18.80;54.21;100255.22;4429216;32;33436;-84
2022/05/07 05:52:58;;;;;;;9.48;6.40;;;;;;;18.90;53.51;100252.59;4442335;32;33793;-83
2022/05/07 05:55:48;;;;;;;9.82;6.47;;;;;;;19.04;53.40;100253.13;4440453;32;32994;-85
2022/05/07 05:58:39;;;;;;;8.75;6.20;;;;;;;19.16;52.46;100253.91;4427696;32;32667;-84
2022/05/07 06:01:41;;;;;;;12.75;8.85;;;;;;;18.90;52.67;100251.75;4429141;32;31647;-85
2022/05/07 06:04:33;;;;;;;10.95;6.87;;;;;;;19.05;52.57;100252.88;4427512;32;32413;-84
2022/05/07 06:07:30;;;;;;;12.13;7.50;;;;;;;18.95;53.17;100254.63;4439676;32;33177;-85
2022/05/07 06:10:21;;;;;;;12.27;6.60;;;;;;;19.11;53.24;100251.03;4415441;32;32483;-78
2022/05/07 06:13:16;;;;;;;8.35;6.25;;;;;;;19.18;53.89;100251.72;4441320;32;31989;-79
2022/05/07 06:16:09;;;;;;;10.30;6.68;;;;;;;19.26;52.17;100256.88;4428439;32;33464;-79
2022/05/07 06:19:11;;;;;;;9.55;5.95;;;;;;;19.29;52.87;100253.56;4416447;32;34066;-80
2022/05/07 06:22:10;;;;;;;9.02;6.85;;;;;;;18.93;53.46;100256.81;4441782;32;34066;-80
2022/05/07 06:28:20;;;;;;;13.45;5.43;;;;;;;19.30;52.15;100255.28;4447357;32;34240;-77
2022/05/07 06:31:20;;;;;;;10.88;7.00;;;;;;;19.64;52.16;100256.12;4444470;32;32985;-84
2022/05/07 06:34:14;;;;;;;8.38;6.25;;;;;;;19.58;51.06;100254.34;4431269;32;32773;-84
2022/05/07 06:37:02;;;;;;;;;;;;;;;19.56;51.76;100259.31;4434675;32;31808;-83
2022/05/07 06:40:01;;;;;;;9.85;6.70;;;;;;;19.55;52.24;100257.63;4433723;32;33540;-82
2022/05/07 06:42:48;;;;;;;9.80;6.62;;;;;;;19.57;51.85;100261.00;4444326;32;33595;-84
2022/05/07 06:45:38;;;;;;;12.27;6.82;;;;;;;19.59;51.86;100257.97;4445667;32;33969;-84
2022/05/07 06:48:33;;;;;;;10.60;6.93;;;;;;;19.71;52.29;100262.34;4431817;32;32000;-82
2022/05/07 06:51:33;;;;;;;9.45;7.00;;;;;;;19.74;51.73;100253.50;4431859;32;33897;-82
2022/05/07 06:54:24;;;;;;;9.30;6.85;;;;;;;19.78;51.70;100259.38;4443858;32;33061;-81
2022/05/07 06:57:18;;;;;;;10.90;6.80;;;;;;;20.03;50.86;100256.12;4429283;32;33395;-82
2022/05/07 07:00:17;;;;;;;10.00;6.65;;;;;;;20.07;50.64;100254.53;4431015;32;33162;-84
2022/05/07 07:03:14;;;;;;;9.35;6.78;;;;;;;20.12;50.88;100256.53;4433285;32;33843;-82
2022/05/07 07:06:14;;;;;;;9.23;6.32;;;;;;;19.99;50.72;100255.81;4445532;32;33002;-83
2022/05/07 07:09:05;;;;;;;12.25;8.73;;;;;;;20.00;51.78;100249.12;4445779;32;34957;-82
2022/05/07 07:11:59;;;;;;;8.82;6.60;;;;;;;19.86;51.91;100256.16;4432409;32;32234;-82
2022/05/07 07:14:51;;;;;;;11.23;6.80;;;;;;;20.12;51.96;100256.53;4433066;32;33624;-82
2022/05/07 07:17:50;;;;;;;10.05;6.35;;;;;;;19.97;51.93;100268.31;4446123;32;32938;-83
2022/05/07 07:20:46;;;;;;;9.07;5.95;;;;;;;20.19;51.63;100257.16;4445299;32;32473;-82
2022/05/07 07:23:42;;;;;;;9.93;6.22;;;;;;;20.21;51.57;100268.91;4431923;32;31912;-81
2022/05/07 07:26:33;;;;;;;11.93;6.25;;;;;;;20.25;51.63;100262.53;4431070;32;32399;-82
2022/05/07 07:29:23;;;;;;;10.85;6.05;;;;;;;20.15;51.76;100267.16;4432951;32;34678;-83
2022/05/07 07:32:15;;;;;;;8.45;5.53;;;;;;;20.48;49.96;100271.78;4431988;32;34009;-82
2022/05/07 07:34:54;;;;;;;9.70;5.87;;;;;;;20.52;49.05;100262.66;4451913;32;33132;-81
2022/05/07 07:37:54;;;;;;;8.05;5.75;;;;;;;20.62;49.55;100268.34;4457954;32;33854;-79
2022/05/07 07:40:52;;;;;;;9.25;6.45;;;;;;;20.50;48.64;100273.22;4458683;32;35121;-78
2022/05/07 07:43:53;;;;;;;11.63;5.85;;;;;;;20.37;49.18;100274.41;4459195;32;34008;-79
2022/05/07 07:49:47;;;;;;;10.13;6.57;;;;;;;20.69;48.79;100263.41;4459551;32;34054;-78
2022/05/07 07:52:45;;;;;;;8.30;6.20;;;;;;;20.31;50.42;100266.25;4434831;32;34287;-78
2022/05/07 07:55:46;;;;;;;9.15;6.55;;;;;;;20.40;49.99;100270.31;4456712;32;32588;-78
2022/05/07 07:58:34;;;;;;;;;;;;;;;20.41;49.64;100272.00;4444787;32;31809;-79
2022/05/07 08:01:22;;;;;;;8.52;5.85;;;;;;;20.65;49.17;100267.84;4456732;32;32498;-79
2022/05/07 08:04:10;;;;;;;9.93;6.93;;;;;;;20.88;48.16;100269.47;4457202;32;34450;-79
2022/05/07 08:13:08;;;;;;;8.63;6.28;;;;;;;20.85;48.54;100274.72;4470837;32;34450;-79
2022/05/07 08:15:55;;;;;;;10.73;6.68;;;;;;;20.85;48.60;100271.94;4455194;32;35386;-79
2022/05/07 08:18:47;;;;;;;9.35;6.55;;;;;;;20.85;49.29;100271.94;4457699;32;33890;-78
2022/05/07 08:21:43;;;;;;;9.35;6.20;;;;;;;21.12;48.65;100272.78;4445237;32;31813;-79
2022/05/07 08:24:37;;;;;;;10.30;6.30;;;;;;;21.13;47.91;100274.47;4445437;32;34458;-79
2022/05/07 08:27:25;;;;;;;10.55;5.93;;;;;;;20.94;49.05;100279.56;4444767;32;33060;-78
2022/05/07 08:30:17;;;;;;;9.88;6.15;;;;;;;21.25;47.77;100269.59;4458096;32;33977;-79
2022/05/07 08:33:04;;;;;;;11.12;6.43;;;;;;;21.38;47.95;100279.47;4444355;32;32158;-80
2022/05/07 08:36:11;;;;;;;8.80;6.68;;;;;;;21.46;47.15;100272.53;4444071;32;33307;-78
2022/05/07 08:39:21;;;;;;;9.45;7.00;;;;;;;21.31;46.95;100276.06;4470560;32;34552;-79
2022/05/07 08:42:11;;;;;;;9.02;6.72;;;;;;;21.43;47.47;100278.69;4443985;32;32422;-79
2022/05/07 08:45:09;;;;;;;8.57;6.50;;;;;;;21.63;47.19;100281.63;4457881;32;33694;-78
2022/05/07 08:48:02;;;;;;;10.48;6.93;;;;;;;21.76;47.29;100283.97;4444411;32;32098;-79
2022/05/07 08:50:56;;;;;;;9.13;6.68;;;;;;;21.78;46.35;100283.69;4457871;32;35049;-79
2022/05/07 08:53:43;;;;;;;9.38;6.20;;;;;;;21.88;45.56;100281.81;4457546;32;32841;-79
2022/05/07 08:56:38;;;;;;;8.43;5.68;;;;;;;22.01;45.00;100284.19;4445639;32;33242;-79
2022/05/07 08:59:35;;;;;;;11.00;6.55;;;;;;;22.02;45.66;100285.84;4457865;32;34609;-78
2022/05/07 09:02:31;;;;;;;11.12;6.60;;;;;;;22.14;45.27;100285.63;4445012;32;33722;-79
2022/05/07 09:05:18;;;;;;;10.63;6.47;;;;;;;22.22;45.02;100276.72;4456744;32;33821;-79
2022/05/07 09:08:10;;;;;;;7.75;5.80;;;;;;;22.50;43.75;100281.06;4457799;32;33339;-79
2022/05/07 09:11:06;;;;;;;10.20;6.37;;;;;;;22.49;43.65;100279.38;4456985;32;34429;-79
2022/05/07 09:14:19;;;;;;;11.07;6.30;;;;;;;22.88;42.18;100277.00;4456185;32;33848;-79
2022/05/07 09:17:10;;;;;;;9.30;6.22;;;;;;;22.94;43.30;100275.91;4457376;32;34021;-78
2022/05/07 09:20:02;;;;;;;9.05;5.60;;;;;;;23.25;41.69;100279.62;4444270;32;32879;-79
2022/05/07 09:22:59;;;;;;;9.68;6.00;;;;;;;23.23;40.68;100279.03;4456181;32;33256;-78
2022/05/07 09:25:51;;;;;;;7.93;5.20;;;;;;;23.38;41.07;100271.78;4443851;32;34254;-80
2022/05/07 09:28:44;;;;;;;8.38;6.30;;;;;;;23.52;40.67;100270.91;4443955;32;34163;-78
2022/05/07 09:31:51;;;;;;;6.97;5.03;;;;;;;23.64;39.93;100265.06;4469926;32;33166;-80
2022/05/07 09:37:55;;;;;;;9.77;6.10;;;;;;;23.43;39.89;100267.00;4440168;32;32877;-79
2022/05/07 09:40:55;;;;;;;6.87;4.70;;;;;;;23.37;39.85;100256.09;4433446;32;34727;-79
2022/05/07 09:43:46;;;;;;;10.13;5.57;;;;;;;23.28;40.50;100256.66;4460836;32;33475;-79
2022/05/07 09:46:33;;;;;;;8.32;5.30;;;;;;;23.75;39.25;100261.13;4459649;32;33507;-79
2022/05/07 09:49:23;;;;;;;10.82;5.25;;;;;;;23.74;39.57;100248.25;4432718;32;33246;-78
2022/05/07 09:52:13;;;;;;;8.93;5.10;;;;;;;23.92;38.96;100247.66;4448550;32;34726;-79
2022/05/07 09:58:10;;;;;;;9.35;5.30;;;;;;;24.29;37.07;100238.88;4440946;32;33942;-78
2022/05/07 10:01:08;;;;;;;8.45;4.62;;;;;;;24.33;36.82;100227.06;4442032;32;35067;-79
2022/05/07 10:04:00;;;;;;;10.38;4.90;;;;;;;24.42;36.94;100231.81;4454195;32;34120;-79
2022/05/07 10:07:34;;;;;;;8.63;5.00;;;;;;;24.98;35.90;100227.84;4431191;32;31921;-78
2022/05/07 10:10:37;;;;;;;8.13;4.80;;;;;;;25.05;34.63;100223.59;4455691;32;33324;-79
2022/05/07 10:13:23;;;;;;;10.90;4.25;;;;;;;24.93;35.12;100226.72;4456266;32;35343;-79
2022/05/07 10:16:24;;;;;;;10.13;4.40;;;;;;;25.26;35.10;100219.50;4443678;32;32475;-81
2022/05/07 10:19:25;;;;;;;11.05;5.03;;;;;;;25.28;35.17;100228.47;4444333;32;32636;-79
2022/05/07 10:22:29;;;;;;;6.62;4.25;;;;;;;25.85;33.95;100212.78;4456953;32;33718;-82
2022/05/07 10:25:23;;;;;;;8.50;4.50;;;;;;;26.19;32.85;100215.47;4454166;32;35229;-83
2022/05/07 10:28:24;;;;;;;11.35;4.50;;;;;;;25.92;33.16;100207.66;4457245;32;34164;-84
2022/05/07 10:31:20;;;;;;;11.40;4.87;;;;;;;26.16;33.38;100212.41;4456565;32;34110;-85
2022/05/07 10:34:11;;;;;;;9.13;5.07;;;;;;;26.27;32.14;100216.78;4456661;32;33791;-85
2022/05/07 10:37:11;;;;;;;8.68;4.95;;;;;;;26.38;32.17;100207.13;4435432;32;33154;-79
2022/05/07 10:40:03;;;;;;;8.05;4.65;;;;;;;26.39;31.85;100197.53;4439298;32;33708;-79
2022/05/07 10:42:57;;;;;;;7.45;4.97;;;;;;;26.69;31.32;100201.88;4426719;32;33423;-79
2022/05/07 10:46:14;;;;;;;7.53;4.30;;;;;;;26.62;31.77;100203.44;4441083;32;34005;-83
2022/05/07 10:49:10;;;;;;;6.90;4.03;;;;;;;26.79;30.70;100201.75;4453661;32;34313;-82
2022/05/07 10:51:56;;;;;;;;;;;;;;;26.70;30.66;100192.28;4427897;32;33876;-83
2022/05/07 10:54:47;;;;;;;10.38;4.82;;;;;;;26.58;30.73;100204.03;4414701;32;31651;-78
2022/05/07 10:57:39;;;;;;;11.12;5.50;;;;;;;26.34;32.42;100197.59;4428294;32;33734;-83
2022/05/07 11:00:36;;;;;;;8.10;4.78;;;;;;;26.26;33.47;100189.78;4453414;32;34525;-76
2022/05/07 11:03:25;;;;;;;18.15;8.57;;;;;;;26.09;33.24;100198.72;4437121;32;33917;-76
2022/05/07 11:06:19;;;;;;;6.65;4.18;;;;;;;26.07;33.49;100188.91;4439418;32;33223;-76
2022/05/07 11:09:11;;;;;;;8.43;4.30;;;;;;;26.25;32.35;100193.75;4438436;32;33608;-76
2022/05/07 11:12:06;;;;;;;9.93;4.00;;;;;;;25.74;31.59;100194.34;4440713;32;35153;-76
2022/05/07 11:14:57;;;;;;;10.50;4.18;;;;;;;25.85;32.22;100190.28;4417042;32;33077;-76
2022/05/07 11:17:50;;;;;;;7.80;3.85;;;;;;;25.89;32.50;100188.56;4441736;32;33871;-76
2022/05/07 11:20:44;;;;;;;8.27;4.00;;;;;;;25.90;31.37;100184.59;4454720;32;34540;-76
2022/05/07 11:23:35;;;;;;;9.98;3.80;;;;;;;25.98;31.31;100185.94;4454954;32;35048;-76
2022/05/07 11:26:23;;;;;;;8.50;3.58;;;;;;;26.25;30.91;100182.47;4440668;32;32455;-76
2022/05/07 11:29:12;;;;;;;6.25;3.37;;;;;;;25.99;30.64;100178.34;4441140;32;33998;-76
2022/05/07 11:32:14;;;;;;;7.43;3.72;;;;;;;26.16;29.76;100178.66;4428933;32;32046;-80
2022/05/07 11:35:05;;;;;;;8.93;4.97;;;;;;;26.16;31.45;100171.06;4428199;32;33050;-80
2022/05/07 11:38:01;;;;;;;7.40;4.55;;;;;;;26.10;32.26;100168.59;4428848;32;32475;-80
2022/05/07 11:40:56;;;;;;;7.55;4.50;;;;;;;26.69;32.36;100173.72;4416786;32;32109;-80
2022/05/07 11:47:03;;;;;;;8.15;4.37;;;;;;;26.52;30.93;100165.00;4443802;32;34603;-81
2022/05/07 11:50:20;;;;;;;7.12;4.12;;;;;;;26.69;31.17;100172.87;4435629;32;33858;-80
2022/05/07 11:53:14;;;;;;;9.48;4.80;;;;;;;26.82;30.35;100158.03;4451468;32;33967;-80
2022/05/07 11:56:13;;;;;;;7.00;4.72;;;;;;;27.18;31.44;100147.91;4450891;32;34668;-80
2022/05/07 11:59:06;;;;;;;8.45;4.70;;;;;;;27.23;31.04;100150.66;4438264;32;33562;-79
2022/05/07 12:01:58;;;;;;;9.02;5.10;;;;;;;27.48;31.56;100148.50;4447872;32;34586;-80
2022/05/07 12:04:43;;;;;;;9.93;4.55;;;;;;;27.11;32.13;100150.28;4436045;32;33471;-80
2022/05/07 12:07:41;;;;;;;13.15;7.53;;;;;;;27.38;31.37;100154.31;4437183;32;33737;-80
2022/05/07 12:10:35;;;;;;;7.68;4.90;;;;;;;27.37;29.83;100152.63;4461202;32;34320;-80
2022/05/07 12:13:36;;;;;;;6.50;3.70;;;;;;;27.42;29.99;100152.56;4434927;32;34343;-80
2022/05/07 12:19:17;;;;;;;9.52;3.50;;;;;;;27.46;28.58;100137.53;4443350;32;32313;-81
2022/05/07 12:31:07;;;;;;;8.23;3.62;;;;;;;27.58;29.46;100134.22;4443020;32;33239;-82
2022/05/07 12:34:02;;;;;;;5.82;4.00;;;;;;;27.91;28.78;100122.88;4442489;32;34408;-80
2022/05/07 12:36:55;;;;;;;5.97;3.58;;;;;;;28.27;27.82;100123.81;4442688;32;32978;-81
2022/05/07 12:39:45;;;;;;;5.85;3.80;;;;;;;28.15;28.05;100118.66;4458740;32;33662;-80
2022/05/07 12:42:35;;;;;;;8.55;3.47;;;;;;;28.07;27.38;100130.69;4448881;32;34195;-80
2022/05/07 12:45:34;;;;;;;6.50;3.67;;;;;;;27.74;28.05;100135.63;4451816;32;34027;-80
2022/05/07 12:48:21;;;;;;;6.35;3.83;;;;;;;27.99;28.00;100125.78;4444512;32;33926;-80
2022/05/07 12:51:10;;;;;;;8.82;3.70;;;;;;;27.79;27.01;100107.31;4445744;32;33991;-80
2022/05/07 12:53:57;;;;;;;6.30;3.20;;;;;;;27.98;27.34;100104.34;4456171;32;33302;-80
2022/05/07 12:56:46;;;;;;;6.93;3.45;;;;;;;27.93;26.43;100120.59;4457251;32;34498;-80
2022/05/07 12:59:36;;;;;;;7.55;3.35;;;;;;;28.18;27.36;100103.91;4444953;32;33730;-80
2022/05/07 13:02:29;;;;;;;6.57;3.12;;;;;;;27.99;26.28;100100.38;4456633;32;34186;-80
2022/05/07 13:05:22;;;;;;;7.07;3.30;;;;;;;27.97;26.56;100101.84;4457630;32;33711;-81
2022/05/07 13:08:34;;;;;;;6.97;3.47;;;;;;;27.74;27.01;100098.94;4449506;32;35268;-81
2022/05/07 13:11:27;;;;;;;10.85;3.50;;;;;;;27.47;27.43;100094.09;4457126;32;34770;-79
2022/05/07 13:14:15;;;;;;;5.87;3.00;;;;;;;27.23;26.55;100099.06;4444491;32;32808;-79
2022/05/07 13:17:06;;;;;;;11.60;3.58;;;;;;;27.20;27.40;100092.09;4444240;32;33716;-79
2022/05/07 13:19:58;;;;;;;6.57;3.30;;;;;;;27.59;27.75;100085.16;4442726;32;34022;-79
2022/05/07 13:22:47;;;;;;;6.37;3.03;;;;;;;27.36;27.56;100084.16;4470209;32;34126;-79
2022/05/07 13:25:39;;;;;;;6.20;3.30;;;;;;;26.95;27.64;100080.38;4431287;32;32856;-80
2022/05/07 13:28:35;;;;;;;6.03;3.85;;;;;;;27.13;27.75;100085.16;4444747;32;32527;-81
2022/05/07 13:31:28;;;;;;;6.65;3.65;;;;;;;27.16;28.17;100087.38;4445223;32;34697;-80
2022/05/07 13:34:18;;;;;;;5.55;2.95;;;;;;;27.13;27.39;100079.53;4456681;32;33884;-80
2022/05/07 13:37:13;;;;;;;5.95;3.22;;;;;;;26.84;27.04;100083.38;4444155;32;31922;-81
2022/05/07 13:40:06;;;;;;;6.93;3.20;;;;;;;27.13;26.58;100074.72;4443970;32;32307;-79
2022/05/07 13:42:56;;;;;;;6.97;3.28;;;;;;;27.15;27.33;100078.06;4457378;32;34507;-79
2022/05/07 13:45:50;;;;;;;7.25;3.50;;;;;;;27.09;27.61;100076.50;4444910;32;33904;-78
2022/05/07 13:48:35;;;;;;;6.97;3.55;;;;;;;27.19;27.39;100067.03;4442318;32;31900;-78
2022/05/07 13:51:29;;;;;;;7.50;3.70;;;;;;;27.11;27.65;100068.56;4432684;32;32154;-79
2022/05/07 13:54:19;;;;;;;6.45;3.47;;;;;;;27.11;27.29;100062.09;4444017;32;34217;-79
2022/05/07 13:57:09;;;;;;;10.00;3.80;;;;;;;27.03;28.13;100065.62;4470391;32;34058;-78
2022/05/07 14:00:00;;;;;;;6.05;3.42;;;;;;;27.14;27.97;100065.13;4456988;32;33453;-79
2022/05/07 14:03:03;;;;;;;7.35;3.28;;;;;;;27.37;27.98;100060.44;4445345;32;32368;-79
2022/05/07 14:05:54;;;;;;;7.60;3.95;;;;;;;27.09;29.21;100062.41;4443831;32;33983;-79